createdAt,value
2023-06-25T00:00:16.872Z,79.76
2023-06-25T00:02:45.424Z,80.03
2023-06-25T00:05:13.593Z,79.96
2023-06-25T00:07:43.427Z,80.87
2023-06-25T00:10:12.217Z,80.71
2023-06-25T00:12:41.372Z,80.03
2023-06-25T00:15:12.646Z,79.78
2023-06-25T00:17:40.978Z,80.06
2023-06-25T00:20:10.587Z,81.03
2023-06-25T00:22:39.562Z,81.33
2023-06-25T00:25:09.851Z,81.43
2023-06-25T00:27:38.659Z,82.15
2023-06-25T00:30:08.719Z,82.22
2023-06-25T00:32:36.962Z,82.82
2023-06-25T00:35:08.454Z,82.74
2023-06-25T00:37:38.102Z,82.71
2023-06-25T00:40:11.456Z,82.31
2023-06-25T00:42:45.787Z,82.94
2023-06-25T00:45:15.442Z,82.76
2023-06-25T00:47:46.671Z,82.48
2023-06-25T00:50:15.299Z,83.28
2023-06-25T00:52:43.426Z,83.76
2023-06-25T00:55:12.899Z,83.15
2023-06-25T00:57:43.064Z,83.49
2023-06-25T01:00:15.793Z,83.50
2023-06-25T01:02:48.165Z,83.18
2023-06-25T01:05:22.316Z,82.71
2023-06-25T01:07:51.088Z,82.22
2023-06-25T01:10:21.119Z,81.99
2023-06-25T01:12:53.805Z,81.91
2023-06-25T01:15:21.841Z,81.28
2023-06-25T01:17:50.419Z,81.30
2023-06-25T01:20:19.086Z,82.22
2023-06-25T01:22:49.865Z,82.55
2023-06-25T01:25:18.190Z,82.85
2023-06-25T01:27:46.961Z,83.32
2023-06-25T01:30:16.260Z,83.24
2023-06-25T01:32:45.619Z,83.53
2023-06-25T01:35:15.011Z,83.69
2023-06-25T01:37:43.892Z,83.28
2023-06-25T01:40:14.319Z,84.37
2023-06-25T01:42:42.799Z,84.44
2023-06-25T01:45:12.663Z,84.60
2023-06-25T01:47:41.259Z,84.48
2023-06-25T01:50:10.779Z,83.90
2023-06-25T01:52:39.679Z,84.27
2023-06-25T01:55:09.486Z,84.46
2023-06-25T01:57:38.867Z,85.18
2023-06-25T02:00:10.004Z,84.86
2023-06-25T02:02:38.093Z,84.96
2023-06-25T02:05:06.757Z,85.40
2023-06-25T02:07:35.228Z,85.27
2023-06-25T02:10:03.332Z,84.52
2023-06-25T02:12:31.444Z,85.13
2023-06-25T02:15:01.924Z,85.52
2023-06-25T02:17:30.041Z,85.66
2023-06-25T02:19:58.007Z,86.12
2023-06-25T02:22:26.506Z,86.33
2023-06-25T02:24:54.542Z,86.16
2023-06-25T02:27:22.526Z,86.41
2023-06-25T02:29:51.046Z,85.94
2023-06-25T02:32:20.516Z,86.26
2023-06-25T02:34:48.488Z,86.14
2023-06-25T02:37:17.378Z,86.39
2023-06-25T02:39:45.469Z,87.01
2023-06-25T02:42:13.489Z,86.69
2023-06-25T02:44:42.009Z,86.47
2023-06-25T02:47:10.175Z,86.67
2023-06-25T02:49:39.637Z,86.56
2023-06-25T02:52:08.852Z,86.31
2023-06-25T02:54:36.940Z,86.12
2023-06-25T02:57:05.286Z,86.18
2023-06-25T02:59:33.938Z,86.39
2023-06-25T03:02:02.720Z,85.98
2023-06-25T03:04:30.773Z,85.24
2023-06-25T03:07:00.749Z,85.18
2023-06-25T03:09:28.750Z,84.79
2023-06-25T03:11:57.239Z,85.29
2023-06-25T03:14:34.886Z,84.91
2023-06-25T03:17:04.857Z,84.97
2023-06-25T03:19:33.289Z,85.33
2023-06-25T03:22:02.741Z,85.29
2023-06-25T03:24:31.245Z,84.48
2023-06-25T03:26:59.301Z,83.65
2023-06-25T03:29:27.828Z,82.11
2023-06-25T03:31:55.840Z,79.75
2023-06-25T03:34:23.816Z,78.94
2023-06-25T03:36:52.474Z,75.31
2023-06-25T03:39:22.667Z,76.29
2023-06-25T03:41:50.678Z,72.28
2023-06-25T03:44:19.082Z,70.92
2023-06-25T03:46:47.485Z,70.88
2023-06-25T03:49:15.550Z,67.17
2023-06-25T03:51:43.988Z,64.02
2023-06-25T03:54:11.945Z,67.17
2023-06-25T03:56:41.293Z,58.26
2023-06-25T03:59:09.740Z,62.30
2023-06-25T04:01:37.859Z,55.24
2023-06-25T04:04:06.181Z,56.92
2023-06-25T04:06:34.632Z,54.12
2023-06-25T04:09:02.569Z,52.14
2023-06-25T04:11:30.569Z,53.01
2023-06-25T04:14:00.358Z,50.93
2023-06-25T04:16:29.179Z,47.28
2023-06-25T04:18:57.580Z,45.21
2023-06-25T04:21:25.466Z,45.36
2023-06-25T04:23:53.834Z,41.10
2023-06-25T04:26:21.833Z,44.53
2023-06-25T04:28:49.760Z,46.14
2023-06-25T04:31:19.649Z,43.96
2023-06-25T04:33:47.652Z,39.82
2023-06-25T04:36:16.824Z,42.66
2023-06-25T04:38:45.200Z,40.33
2023-06-25T04:41:13.171Z,38.15
2023-06-25T04:43:41.174Z,36.87
2023-06-25T04:46:09.526Z,36.02
2023-06-25T04:48:39.246Z,38.31
2023-06-25T04:51:08.188Z,35.81
2023-06-25T04:53:36.233Z,35.94
2023-06-25T04:56:04.140Z,34.94
2023-06-25T04:58:32.116Z,35.97
2023-06-25T05:01:00.492Z,34.47
2023-06-25T05:03:28.474Z,35.03
2023-06-25T05:05:58.079Z,34.04
2023-06-25T05:08:26.504Z,33.60
2023-06-25T05:10:54.473Z,31.11
2023-06-25T05:13:22.411Z,31.55
2023-06-25T05:15:50.795Z,28.71
2023-06-25T05:18:18.678Z,30.19
2023-06-25T05:20:47.022Z,30.37
2023-06-25T05:23:16.832Z,27.99
2023-06-25T05:25:45.730Z,30.35
2023-06-25T05:28:13.754Z,29.80
2023-06-25T05:30:42.099Z,28.91
2023-06-25T05:33:09.992Z,27.25
2023-06-25T05:35:38.988Z,29.29
2023-06-25T05:38:09.331Z,29.69
2023-06-25T05:40:38.555Z,28.95
2023-06-25T05:43:06.514Z,29.24
2023-06-25T05:45:35.254Z,28.56
2023-06-25T05:48:03.396Z,26.04
2023-06-25T05:50:31.764Z,25.86
2023-06-25T05:52:59.705Z,25.96
2023-06-25T05:55:27.629Z,24.83
2023-06-25T05:57:56.847Z,24.99
2023-06-25T06:00:25.176Z,25.70
2023-06-25T06:02:53.139Z,22.10
2023-06-25T06:05:21.403Z,25.49
2023-06-25T06:07:49.762Z,22.29
2023-06-25T06:10:18.639Z,20.50
2023-06-25T06:12:47.181Z,22.63
2023-06-25T06:15:17.021Z,26.74
2023-06-25T06:17:45.017Z,23.82
2023-06-25T06:20:14.276Z,22.88
2023-06-25T06:22:42.600Z,20.83
2023-06-25T06:25:10.849Z,24.29
2023-06-25T06:27:39.264Z,23.30
2023-06-25T06:30:08.868Z,23.68
2023-06-25T06:32:38.705Z,23.42
2023-06-25T06:35:07.111Z,25.56
2023-06-25T06:37:35.103Z,25.56
2023-06-25T06:40:03.481Z,22.18
2023-06-25T06:42:31.345Z,22.55
2023-06-25T06:44:59.654Z,21.95
2023-06-25T06:47:27.582Z,23.46
2023-06-25T06:49:56.948Z,22.17
2023-06-25T06:52:27.976Z,21.40
2023-06-25T06:54:55.939Z,22.99
2023-06-25T06:57:24.138Z,22.73
2023-06-25T06:59:52.512Z,22.24
2023-06-25T07:02:20.620Z,22.77
2023-06-25T07:04:48.557Z,21.87
2023-06-25T07:07:18.396Z,19.68
2023-06-25T07:09:52.173Z,22.69
2023-06-25T07:12:20.704Z,21.12
2023-06-25T07:14:49.057Z,23.35
2023-06-25T07:17:17.002Z,23.07
2023-06-25T07:19:45.435Z,21.27
2023-06-25T07:22:13.885Z,20.60
2023-06-25T07:24:43.715Z,20.38
2023-06-25T07:27:12.661Z,20.87
2023-06-25T07:29:40.602Z,20.78
2023-06-25T07:32:09.513Z,20.67
2023-06-25T07:34:38.247Z,20.98
2023-06-25T07:37:07.996Z,22.24
2023-06-25T07:39:35.887Z,20.09
2023-06-25T07:42:06.336Z,20.31
2023-06-25T07:44:50.564Z,18.21
2023-06-25T07:47:22.644Z,20.09
2023-06-25T07:49:50.652Z,19.63
2023-06-25T07:52:18.867Z,20.25
2023-06-25T07:54:47.264Z,19.10
2023-06-25T07:57:16.780Z,19.90
2023-06-25T07:59:51.981Z,19.97
2023-06-25T08:02:22.981Z,20.72
2023-06-25T08:04:51.487Z,17.85
2023-06-25T08:07:19.722Z,18.37
2023-06-25T08:09:51.057Z,18.58
2023-06-25T08:12:23.295Z,19.67
2023-06-25T08:14:53.244Z,18.70
2023-06-25T08:17:21.236Z,18.68
2023-06-25T08:19:49.163Z,19.49
2023-06-25T08:22:17.762Z,19.76
2023-06-25T08:24:46.139Z,17.02
2023-06-25T08:27:14.081Z,17.42
2023-06-25T08:29:44.571Z,17.49
2023-06-25T08:32:12.497Z,17.90
2023-06-25T08:34:40.490Z,20.35
2023-06-25T08:37:08.853Z,16.57
2023-06-25T08:39:36.811Z,17.85
2023-06-25T08:42:05.208Z,17.24
2023-06-25T08:44:33.655Z,20.23
2023-06-25T08:47:03.625Z,16.49
2023-06-25T08:49:32.827Z,18.57
2023-06-25T08:52:02.391Z,20.71
2023-06-25T08:54:30.287Z,18.04
2023-06-25T08:56:58.675Z,19.58
2023-06-25T08:59:26.468Z,21.57
2023-06-25T09:01:54.859Z,18.65
2023-06-25T09:04:24.538Z,18.36
2023-06-25T09:07:04.007Z,19.49
2023-06-25T09:09:33.738Z,18.24
2023-06-25T09:12:01.838Z,18.92
2023-06-25T09:14:31.777Z,17.16
2023-06-25T09:16:59.750Z,19.17
2023-06-25T09:19:28.991Z,16.55
2023-06-25T09:21:57.104Z,17.20
2023-06-25T09:24:25.647Z,15.42
2023-06-25T09:26:54.560Z,16.75
2023-06-25T09:29:24.768Z,17.34
2023-06-25T09:31:52.715Z,19.28
2023-06-25T09:34:21.214Z,18.42
2023-06-25T09:36:52.003Z,19.47
2023-06-25T09:39:19.848Z,21.11
2023-06-25T09:41:48.790Z,19.58
2023-06-25T09:44:18.970Z,17.59
2023-06-25T09:46:49.769Z,19.01
2023-06-25T09:49:21.254Z,19.83
2023-06-25T09:51:55.863Z,20.72
2023-06-25T09:54:26.103Z,20.50
2023-06-25T09:56:55.810Z,20.53
2023-06-25T09:59:24.891Z,23.78
2023-06-25T10:01:54.425Z,19.72
2023-06-25T10:04:22.917Z,19.19
2023-06-25T10:06:52.645Z,17.61
2023-06-25T10:09:21.287Z,18.91
2023-06-25T10:11:52.397Z,21.25
2023-06-25T10:14:20.679Z,19.92
2023-06-25T10:16:54.763Z,21.00
2023-06-25T10:19:23.347Z,19.05
2023-06-25T10:22:03.010Z,19.34
2023-06-25T10:24:40.527Z,19.93
2023-06-25T10:27:09.032Z,18.04
2023-06-25T10:29:43.535Z,18.86
2023-06-25T10:32:13.946Z,18.79
2023-06-25T10:34:42.355Z,20.17
2023-06-25T10:37:15.079Z,18.85
2023-06-25T10:39:43.913Z,19.16
2023-06-25T10:42:12.792Z,21.47
2023-06-25T10:44:42.464Z,21.21
2023-06-25T10:47:12.608Z,22.54
2023-06-25T10:49:42.190Z,21.54
2023-06-25T10:52:11.895Z,22.37
2023-06-25T10:54:39.857Z,23.73
2023-06-25T10:57:09.507Z,23.35
2023-06-25T10:59:38.239Z,21.33
2023-06-25T11:02:14.166Z,21.72
2023-06-25T11:04:42.620Z,21.20
2023-06-25T11:07:12.970Z,22.21
2023-06-25T11:09:40.967Z,22.40
2023-06-25T11:12:10.231Z,23.36
2023-06-25T11:14:38.082Z,23.86
2023-06-25T11:17:06.662Z,24.01
2023-06-25T11:19:35.037Z,24.31
2023-06-25T11:22:06.891Z,23.70
2023-06-25T11:24:38.952Z,23.63
2023-06-25T11:27:08.645Z,24.20
2023-06-25T11:29:38.929Z,23.63
2023-06-25T11:32:09.663Z,24.97
2023-06-25T11:34:38.870Z,25.52
2023-06-25T11:37:13.571Z,25.67
2023-06-25T11:39:47.772Z,25.46
2023-06-25T11:42:17.305Z,25.99
2023-06-25T11:44:46.051Z,25.28
2023-06-25T11:47:17.885Z,23.60
2023-06-25T11:49:54.851Z,23.72
2023-06-25T11:52:23.432Z,26.32
2023-06-25T11:54:52.852Z,25.29
2023-06-25T11:57:20.963Z,26.00
2023-06-25T11:59:49.442Z,25.81
2023-06-25T12:02:17.293Z,25.90
2023-06-25T12:04:45.714Z,28.04
2023-06-25T12:07:14.737Z,26.29
2023-06-25T12:09:42.742Z,26.17
2023-06-25T12:12:13.002Z,27.34
2023-06-25T12:14:41.088Z,27.35
2023-06-25T12:17:09.000Z,27.03
2023-06-25T12:19:37.344Z,27.51
2023-06-25T12:22:05.614Z,27.87
2023-06-25T12:24:33.461Z,27.88
2023-06-25T12:27:01.844Z,26.85
2023-06-25T12:29:32.581Z,27.27
2023-06-25T12:32:00.513Z,27.25
2023-06-25T12:34:28.846Z,27.23
2023-06-25T12:36:56.846Z,28.07
2023-06-25T12:39:24.730Z,28.06
2023-06-25T12:41:53.234Z,27.57
2023-06-25T12:44:21.188Z,27.78
2023-06-25T12:46:50.492Z,28.89
2023-06-25T12:49:18.848Z,29.61
2023-06-25T12:51:47.565Z,29.35
2023-06-25T12:54:16.792Z,29.23
2023-06-25T12:56:45.601Z,30.06
2023-06-25T12:59:13.564Z,30.03
2023-06-25T13:01:41.812Z,29.13
2023-06-25T13:04:12.163Z,29.66
2023-06-25T13:06:40.997Z,29.77
2023-06-25T13:09:11.239Z,30.60
2023-06-25T13:11:40.400Z,30.02
2023-06-25T13:14:09.445Z,30.19
2023-06-25T13:16:37.320Z,30.08
2023-06-25T13:19:05.806Z,30.42
2023-06-25T13:21:36.751Z,30.32
2023-06-25T13:24:04.770Z,29.69
2023-06-25T13:26:33.226Z,30.13
2023-06-25T13:29:01.083Z,29.74
2023-06-25T13:31:29.622Z,29.67
2023-06-25T13:33:58.025Z,29.76
2023-06-25T13:36:26.613Z,29.93
2023-06-25T13:38:57.055Z,29.51
2023-06-25T13:41:24.944Z,29.24
2023-06-25T13:43:53.452Z,29.69
2023-06-25T13:46:22.105Z,29.33
2023-06-25T13:48:50.501Z,28.71
2023-06-25T13:51:18.428Z,28.55
2023-06-25T13:53:47.181Z,28.34
2023-06-25T13:56:16.883Z,28.67
2023-06-25T13:58:45.169Z,28.43
2023-06-25T14:01:13.804Z,29.64
2023-06-25T14:03:42.078Z,29.50
2023-06-25T14:06:10.902Z,29.29
2023-06-25T14:08:39.436Z,29.38
2023-06-25T14:11:07.512Z,29.39
2023-06-25T14:13:37.473Z,30.08
2023-06-25T14:16:15.051Z,30.21
2023-06-25T14:18:44.593Z,31.05
2023-06-25T14:21:12.638Z,31.03
2023-06-25T14:23:40.752Z,31.77
2023-06-25T14:26:09.324Z,32.03
2023-06-25T14:28:38.673Z,31.42
2023-06-25T14:31:07.049Z,31.22
2023-06-25T14:33:36.433Z,31.28
2023-06-25T14:36:04.605Z,31.58
2023-06-25T14:38:32.873Z,31.83
2023-06-25T14:41:01.174Z,31.49
2023-06-25T14:43:29.040Z,31.60
2023-06-25T14:45:58.427Z,31.57
2023-06-25T14:48:27.314Z,31.16
2023-06-25T14:50:55.602Z,31.24
2023-06-25T14:53:23.872Z,31.72
2023-06-25T14:55:52.305Z,31.39
2023-06-25T14:58:20.687Z,31.66
2023-06-25T15:00:48.980Z,31.84
2023-06-25T15:03:18.758Z,32.78
2023-06-25T15:06:03.208Z,31.74
2023-06-25T15:08:35.158Z,31.24
2023-06-25T15:11:03.119Z,31.96
2023-06-25T15:13:30.964Z,31.47
2023-06-25T15:15:59.405Z,31.62
2023-06-25T15:18:28.728Z,30.67
2023-06-25T15:20:57.096Z,30.58
2023-06-25T15:23:25.096Z,31.46
2023-06-25T15:25:54.618Z,30.18
2023-06-25T15:28:25.840Z,30.06
2023-06-25T15:30:55.323Z,30.58
2023-06-25T15:33:23.817Z,31.08
2023-06-25T15:35:54.026Z,30.66
2023-06-25T15:38:21.998Z,31.52
2023-06-25T15:40:50.831Z,31.14
2023-06-25T15:43:19.157Z,30.99
2023-06-25T15:45:47.448Z,29.94
2023-06-25T15:48:15.990Z,29.88
2023-06-25T15:50:43.899Z,29.71
2023-06-25T15:53:13.846Z,30.42
2023-06-25T15:55:42.188Z,30.52
2023-06-25T15:58:10.185Z,30.74
2023-06-25T16:00:38.877Z,30.46
2023-06-25T16:03:08.595Z,30.62
2023-06-25T16:05:37.153Z,30.86
2023-06-25T16:08:05.764Z,31.82
2023-06-25T16:10:36.520Z,29.52
2023-06-25T16:13:04.514Z,30.08
2023-06-25T16:15:32.870Z,30.82
2023-06-25T16:18:00.792Z,30.35
2023-06-25T16:20:29.954Z,29.85
2023-06-25T16:22:57.965Z,30.23
2023-06-25T16:25:26.305Z,30.24
2023-06-25T16:27:55.574Z,30.54
2023-06-25T16:30:23.416Z,30.76
2023-06-25T16:32:52.474Z,29.93
2023-06-25T16:35:20.503Z,29.14
2023-06-25T16:37:48.972Z,30.14
2023-06-25T16:40:17.463Z,29.17
2023-06-25T16:42:45.336Z,29.06
2023-06-25T16:45:15.475Z,29.91
2023-06-25T16:47:43.844Z,29.27
2023-06-25T16:50:11.832Z,30.47
2023-06-25T16:52:39.790Z,30.21
2023-06-25T16:55:08.469Z,30.02
2023-06-25T16:57:36.429Z,30.10
2023-06-25T17:00:05.755Z,30.85
2023-06-25T17:02:36.078Z,30.52
2023-06-25T17:05:04.550Z,30.55
2023-06-25T17:07:32.533Z,30.44
2023-06-25T17:10:01.042Z,30.20
2023-06-25T17:12:28.909Z,30.39
2023-06-25T17:14:57.245Z,30.39
2023-06-25T17:17:25.711Z,30.36
2023-06-25T17:19:55.011Z,30.88
2023-06-25T17:22:22.969Z,31.08
2023-06-25T17:24:50.863Z,31.13
2023-06-25T17:27:21.515Z,31.93
2023-06-25T17:29:54.121Z,32.04
2023-06-25T17:32:22.080Z,32.27
2023-06-25T17:34:50.072Z,32.42
2023-06-25T17:37:19.802Z,32.85
2023-06-25T17:39:47.807Z,32.98
2023-06-25T17:42:15.805Z,33.87
2023-06-25T17:44:44.312Z,33.31
2023-06-25T17:47:12.221Z,33.08
2023-06-25T17:49:40.068Z,33.30
2023-06-25T17:52:08.978Z,33.37
2023-06-25T17:54:38.244Z,33.35
2023-06-25T17:57:06.454Z,33.66
2023-06-25T17:59:34.761Z,34.50
2023-06-25T18:02:02.659Z,34.04
2023-06-25T18:04:30.991Z,34.20
2023-06-25T18:06:59.321Z,34.25
2023-06-25T18:09:27.304Z,34.67
2023-06-25T18:11:57.329Z,35.28
2023-06-25T18:14:25.711Z,35.39
2023-06-25T18:16:53.564Z,35.35
2023-06-25T18:19:22.414Z,35.82
2023-06-25T18:21:51.028Z,35.10
2023-06-25T18:24:19.031Z,35.49
2023-06-25T18:26:47.671Z,35.45
2023-06-25T18:29:17.146Z,35.58
2023-06-25T18:31:46.774Z,36.54
2023-06-25T18:34:16.021Z,36.79
2023-06-25T18:36:46.933Z,35.90
2023-06-25T18:39:16.085Z,36.14
2023-06-25T18:41:44.088Z,35.89
2023-06-25T18:44:14.819Z,36.47
2023-06-25T18:46:44.232Z,37.16
2023-06-25T18:49:12.778Z,37.22
2023-06-25T18:51:40.770Z,37.50
2023-06-25T18:54:08.942Z,37.64
2023-06-25T18:56:37.433Z,38.59
2023-06-25T18:59:05.539Z,39.08
2023-06-25T19:01:33.564Z,39.52
2023-06-25T19:04:04.593Z,39.98
2023-06-25T19:06:33.233Z,40.62
2023-06-25T19:09:01.248Z,40.71
2023-06-25T19:11:29.376Z,41.17
2023-06-25T19:13:57.337Z,41.36
2023-06-25T19:16:25.262Z,42.53
2023-06-25T19:18:53.273Z,43.56
2023-06-25T19:21:22.622Z,45.56
2023-06-25T19:23:51.028Z,46.63
2023-06-25T19:26:18.968Z,48.48
2023-06-25T19:28:46.846Z,49.46
2023-06-25T19:31:15.584Z,49.55
2023-06-25T19:33:43.629Z,50.12
2023-06-25T19:36:12.678Z,49.98
2023-06-25T19:38:42.558Z,50.08
2023-06-25T19:41:11.235Z,50.88
2023-06-25T19:43:41.705Z,53.19
2023-06-25T19:46:09.806Z,52.78
2023-06-25T19:48:37.956Z,52.76
2023-06-25T19:51:06.530Z,52.75
2023-06-25T19:53:34.527Z,53.03
2023-06-25T19:56:03.854Z,54.32
2023-06-25T19:58:32.325Z,54.86
2023-06-25T20:01:00.333Z,54.49
2023-06-25T20:03:28.367Z,54.58
2023-06-25T20:05:56.837Z,54.39
2023-06-25T20:08:25.328Z,54.63
2023-06-25T20:10:53.438Z,54.61
2023-06-25T20:13:23.171Z,54.32
2023-06-25T20:15:51.161Z,53.63
2023-06-25T20:18:19.228Z,53.70
2023-06-25T20:20:47.703Z,53.22
2023-06-25T20:23:15.694Z,54.66
2023-06-25T20:25:43.895Z,55.67
2023-06-25T20:28:12.269Z,54.92
2023-06-25T20:30:42.744Z,55.36
2023-06-25T20:33:12.363Z,55.28
2023-06-25T20:35:40.229Z,55.50
2023-06-25T20:38:08.115Z,57.57
2023-06-25T20:40:37.155Z,57.97
2023-06-25T20:43:07.930Z,58.47
2023-06-25T20:45:37.605Z,58.59
2023-06-25T20:48:07.452Z,58.75
2023-06-25T20:50:35.626Z,58.95
2023-06-25T20:53:04.177Z,58.96
2023-06-25T20:55:32.099Z,60.01
2023-06-25T20:58:00.536Z,61.37
2023-06-25T21:00:28.949Z,61.79
2023-06-25T21:02:57.264Z,61.88
2023-06-25T21:05:27.341Z,61.46
2023-06-25T21:07:55.739Z,60.97
2023-06-25T21:10:23.689Z,60.15
2023-06-25T21:12:51.657Z,59.84
2023-06-25T21:15:20.325Z,60.19
2023-06-25T21:17:48.375Z,60.10
2023-06-25T21:20:16.833Z,60.28
2023-06-25T21:22:46.302Z,61.27
2023-06-25T21:25:14.477Z,62.32
2023-06-25T21:27:42.976Z,63.31
2023-06-25T21:30:12.220Z,64.50
2023-06-25T21:32:40.695Z,64.55
2023-06-25T21:35:11.706Z,64.63
2023-06-25T21:37:40.040Z,64.94
2023-06-25T21:40:10.323Z,65.63
2023-06-25T21:42:38.273Z,65.16
2023-06-25T21:45:07.268Z,65.06
2023-06-25T21:47:35.343Z,64.90
2023-06-25T21:50:03.452Z,65.45
2023-06-25T21:52:31.807Z,65.03
2023-06-25T21:54:59.750Z,65.62
2023-06-25T21:57:29.045Z,65.80
2023-06-25T21:59:57.464Z,66.12
2023-06-25T22:02:25.685Z,66.35
2023-06-25T22:04:53.781Z,66.57
2023-06-25T22:07:22.237Z,66.46
2023-06-25T22:09:50.270Z,67.32
2023-06-25T22:12:19.075Z,67.46
2023-06-25T22:14:48.895Z,67.77
2023-06-25T22:17:16.994Z,67.78
2023-06-25T22:19:44.973Z,67.80
2023-06-25T22:22:13.370Z,68.14
2023-06-25T22:24:41.304Z,68.01
2023-06-25T22:27:09.206Z,68.10
2023-06-25T22:29:42.502Z,68.10
2023-06-25T22:32:13.009Z,68.40
2023-06-25T22:34:41.864Z,69.05
2023-06-25T22:37:09.858Z,69.25
2023-06-25T22:39:39.077Z,69.85
2023-06-25T22:42:07.555Z,69.82
2023-06-25T22:44:36.055Z,69.95
2023-06-25T22:47:04.616Z,70.04
2023-06-25T22:49:33.900Z,70.27
2023-06-25T22:52:02.686Z,72.01
2023-06-25T22:54:30.683Z,71.56
2023-06-25T22:56:58.613Z,72.26
2023-06-25T22:59:27.024Z,71.80
2023-06-25T23:01:55.560Z,71.88
2023-06-25T23:04:23.586Z,73.25
2023-06-25T23:06:53.382Z,74.55
2023-06-25T23:09:21.370Z,74.10
2023-06-25T23:11:49.360Z,73.99
2023-06-25T23:14:17.730Z,75.67
2023-06-25T23:16:45.690Z,75.92
2023-06-25T23:19:13.781Z,75.40
2023-06-25T23:21:47.229Z,75.66
2023-06-25T23:24:16.737Z,76.60
2023-06-25T23:26:48.095Z,77.30
2023-06-25T23:29:17.743Z,77.66
2023-06-25T23:31:46.771Z,77.44
2023-06-25T23:34:15.416Z,78.38
2023-06-25T23:36:43.494Z,77.58
2023-06-25T23:39:11.975Z,77.75
2023-06-25T23:41:41.284Z,78.47
2023-06-25T23:44:09.667Z,78.71
2023-06-25T23:46:37.658Z,79.35
2023-06-25T23:49:06.620Z,79.33
2023-06-25T23:51:34.834Z,79.53
2023-06-25T23:54:02.865Z,79.24
2023-06-25T23:56:33.659Z,79.79
2023-06-25T23:59:04.047Z,80.37
